Main page
METAR-TAF:

METAR-TAF

Airports :

Sarzana, Italy

Aeroporto di Sarzana-Luni

latitude: 44-05N, longitude: 009-59E, elevation: 9 m

Current weather observation

The report was made 7 hours and 32 minutes ago, at 14:55 UTC
Wind 5 kt from the Northwest
Temperature 7°C
Humidity 57%
Pressure 1022 hPa
Visibility 10 km or more
no clouds below 1500 m and no cumulonimbus

METAR: LIQW 181455Z 32005KT CAVOK 07/M01 Q1022 RMK SCT SCT100 VIS MIN 9999 WIND THR18 30006KT BLU

Time: 23:27 (22:27 UTC)


TAF: missing

Weather observations and forecasts of more than 4000 airports (METAR and TAF reports).

The available stations are represented by yellow and red dots on the map.

Hover mouse over dot to see the name of the station.

Then click to see weather observations and forecasts.

To change the map : click on the green buttons with a black cross to zoom in, on the green button with a dash to zoom out, or on the green arrows for adjacent maps.


METAR-TAF: